sensor_id;sensor_type;location;lat;lon;timestamp;P1;durP1;ratioP1;P2;durP2;ratioP2
70406;SDS011;57821;52.202;0.154;2023-04-26T00:00:09;10.77;;;3.10;;
70406;SDS011;57821;52.202;0.154;2023-04-26T00:02:36;10.88;;;3.38;;
70406;SDS011;57821;52.202;0.154;2023-04-26T00:05:03;9.55;;;3.00;;
70406;SDS011;57821;52.202;0.154;2023-04-26T00:07:30;11.48;;;3.35;;
70406;SDS011;57821;52.202;0.154;2023-04-26T00:09:57;15.90;;;4.15;;
70406;SDS011;57821;52.202;0.154;2023-04-26T00:12:23;8.52;;;3.20;;
70406;SDS011;57821;52.202;0.154;2023-04-26T00:14:50;11.18;;;3.88;;
70406;SDS011;57821;52.202;0.154;2023-04-26T00:17:16;14.70;;;4.35;;
70406;SDS011;57821;52.202;0.154;2023-04-26T00:19:43;12.90;;;3.90;;
70406;SDS011;57821;52.202;0.154;2023-04-26T00:22:09;11.70;;;4.10;;
70406;SDS011;57821;52.202;0.154;2023-04-26T00:24:36;11.90;;;3.08;;
70406;SDS011;57821;52.202;0.154;2023-04-26T00:27:03;11.50;;;3.72;;
70406;SDS011;57821;52.202;0.154;2023-04-26T00:29:30;9.13;;;3.25;;
70406;SDS011;57821;52.202;0.154;2023-04-26T00:31:56;12.95;;;3.63;;
70406;SDS011;57821;52.202;0.154;2023-04-26T00:34:23;10.65;;;3.45;;
70406;SDS011;57821;52.202;0.154;2023-04-26T00:36:49;14.90;;;3.83;;
70406;SDS011;57821;52.202;0.154;2023-04-26T00:39:16;10.32;;;3.50;;
70406;SDS011;57821;52.202;0.154;2023-04-26T00:41:42;9.98;;;3.75;;
70406;SDS011;57821;52.202;0.154;2023-04-26T00:44:09;10.48;;;3.50;;
70406;SDS011;57821;52.202;0.154;2023-04-26T00:46:35;13.10;;;3.58;;
70406;SDS011;57821;52.202;0.154;2023-04-26T00:49:02;13.00;;;3.92;;
70406;SDS011;57821;52.202;0.154;2023-04-26T00:51:28;15.00;;;3.28;;
70406;SDS011;57821;52.202;0.154;2023-04-26T00:53:55;10.32;;;3.47;;
70406;SDS011;57821;52.202;0.154;2023-04-26T00:56:22;9.73;;;4.13;;
70406;SDS011;57821;52.202;0.154;2023-04-26T00:58:50;11.32;;;3.80;;
70406;SDS011;57821;52.202;0.154;2023-04-26T01:01:17;14.40;;;3.38;;
70406;SDS011;57821;52.202;0.154;2023-04-26T01:03:44;11.60;;;3.60;;
70406;SDS011;57821;52.202;0.154;2023-04-26T01:06:11;10.07;;;3.72;;
70406;SDS011;57821;52.202;0.154;2023-04-26T01:08:38;14.63;;;4.32;;
70406;SDS011;57821;52.202;0.154;2023-04-26T01:11:04;16.63;;;4.10;;
70406;SDS011;57821;52.202;0.154;2023-04-26T01:13:31;14.38;;;3.92;;
70406;SDS011;57821;52.202;0.154;2023-04-26T01:15:58;13.40;;;3.70;;
70406;SDS011;57821;52.202;0.154;2023-04-26T01:18:25;13.18;;;4.22;;
70406;SDS011;57821;52.202;0.154;2023-04-26T01:20:52;11.30;;;3.22;;
70406;SDS011;57821;52.202;0.154;2023-04-26T01:23:18;9.88;;;3.60;;
70406;SDS011;57821;52.202;0.154;2023-04-26T01:25:45;10.98;;;4.38;;
70406;SDS011;57821;52.202;0.154;2023-04-26T01:28:11;10.80;;;3.38;;
70406;SDS011;57821;52.202;0.154;2023-04-26T01:30:38;12.80;;;3.42;;
70406;SDS011;57821;52.202;0.154;2023-04-26T01:33:04;15.38;;;3.67;;
70406;SDS011;57821;52.202;0.154;2023-04-26T01:35:31;11.00;;;3.40;;
70406;SDS011;57821;52.202;0.154;2023-04-26T01:37:57;10.48;;;3.55;;
70406;SDS011;57821;52.202;0.154;2023-04-26T01:40:26;11.85;;;3.50;;
70406;SDS011;57821;52.202;0.154;2023-04-26T01:42:53;13.35;;;4.30;;
70406;SDS011;57821;52.202;0.154;2023-04-26T01:45:19;12.95;;;3.70;;
70406;SDS011;57821;52.202;0.154;2023-04-26T01:48:04;16.23;;;3.63;;
70406;SDS011;57821;52.202;0.154;2023-04-26T01:50:31;11.25;;;4.10;;
70406;SDS011;57821;52.202;0.154;2023-04-26T01:52:58;11.35;;;3.60;;
70406;SDS011;57821;52.202;0.154;2023-04-26T01:55:24;14.98;;;3.95;;
70406;SDS011;57821;52.202;0.154;2023-04-26T01:57:51;12.68;;;3.72;;
70406;SDS011;57821;52.202;0.154;2023-04-26T02:00:17;12.35;;;3.53;;
70406;SDS011;57821;52.202;0.154;2023-04-26T02:02:47;14.05;;;4.63;;
70406;SDS011;57821;52.202;0.154;2023-04-26T02:05:14;9.35;;;3.72;;
70406;SDS011;57821;52.202;0.154;2023-04-26T02:07:41;11.05;;;3.70;;
70406;SDS011;57821;52.202;0.154;2023-04-26T02:10:07;11.20;;;3.80;;
70406;SDS011;57821;52.202;0.154;2023-04-26T02:12:34;12.02;;;4.55;;
70406;SDS011;57821;52.202;0.154;2023-04-26T02:15:00;11.45;;;4.18;;
70406;SDS011;57821;52.202;0.154;2023-04-26T02:17:27;12.57;;;4.60;;
70406;SDS011;57821;52.202;0.154;2023-04-26T02:19:54;13.57;;;3.80;;
70406;SDS011;57821;52.202;0.154;2023-04-26T02:22:20;10.20;;;4.03;;
70406;SDS011;57821;52.202;0.154;2023-04-26T02:24:46;14.73;;;4.65;;
70406;SDS011;57821;52.202;0.154;2023-04-26T02:27:15;14.00;;;4.40;;
70406;SDS011;57821;52.202;0.154;2023-04-26T02:29:41;9.65;;;4.20;;
70406;SDS011;57821;52.202;0.154;2023-04-26T02:32:11;10.00;;;4.00;;
70406;SDS011;57821;52.202;0.154;2023-04-26T02:34:38;12.68;;;3.80;;
70406;SDS011;57821;52.202;0.154;2023-04-26T02:37:05;12.57;;;4.40;;
70406;SDS011;57821;52.202;0.154;2023-04-26T02:39:31;11.52;;;4.32;;
70406;SDS011;57821;52.202;0.154;2023-04-26T02:41:58;10.88;;;3.92;;
70406;SDS011;57821;52.202;0.154;2023-04-26T02:44:27;12.55;;;4.55;;
70406;SDS011;57821;52.202;0.154;2023-04-26T02:46:55;16.42;;;4.28;;
70406;SDS011;57821;52.202;0.154;2023-04-26T02:49:21;13.35;;;4.32;;
70406;SDS011;57821;52.202;0.154;2023-04-26T02:51:48;11.30;;;3.72;;
70406;SDS011;57821;52.202;0.154;2023-04-26T02:54:15;12.45;;;4.38;;
70406;SDS011;57821;52.202;0.154;2023-04-26T02:56:41;10.18;;;4.18;;
70406;SDS011;57821;52.202;0.154;2023-04-26T02:59:07;29.88;;;5.93;;
70406;SDS011;57821;52.202;0.154;2023-04-26T03:01:34;13.63;;;4.90;;
70406;SDS011;57821;52.202;0.154;2023-04-26T03:04:01;11.18;;;5.10;;
70406;SDS011;57821;52.202;0.154;2023-04-26T03:06:27;20.42;;;4.80;;
70406;SDS011;57821;52.202;0.154;2023-04-26T03:08:54;13.50;;;4.75;;
70406;SDS011;57821;52.202;0.154;2023-04-26T03:11:20;16.15;;;4.68;;
70406;SDS011;57821;52.202;0.154;2023-04-26T03:13:47;13.23;;;4.78;;
70406;SDS011;57821;52.202;0.154;2023-04-26T03:16:13;12.07;;;4.68;;
70406;SDS011;57821;52.202;0.154;2023-04-26T03:18:40;12.05;;;4.75;;
70406;SDS011;57821;52.202;0.154;2023-04-26T03:21:08;10.98;;;5.03;;
70406;SDS011;57821;52.202;0.154;2023-04-26T03:23:34;9.10;;;4.43;;
70406;SDS011;57821;52.202;0.154;2023-04-26T03:26:01;11.82;;;4.25;;
70406;SDS011;57821;52.202;0.154;2023-04-26T03:28:28;11.30;;;5.03;;
70406;SDS011;57821;52.202;0.154;2023-04-26T03:30:55;13.05;;;5.13;;
70406;SDS011;57821;52.202;0.154;2023-04-26T03:33:21;15.77;;;4.95;;
70406;SDS011;57821;52.202;0.154;2023-04-26T03:35:49;12.63;;;4.53;;
70406;SDS011;57821;52.202;0.154;2023-04-26T03:38:15;16.02;;;4.93;;
70406;SDS011;57821;52.202;0.154;2023-04-26T03:40:43;14.75;;;4.72;;
70406;SDS011;57821;52.202;0.154;2023-04-26T03:43:10;16.42;;;6.35;;
70406;SDS011;57821;52.202;0.154;2023-04-26T03:45:37;18.80;;;6.05;;
70406;SDS011;57821;52.202;0.154;2023-04-26T03:48:03;16.30;;;4.95;;
70406;SDS011;57821;52.202;0.154;2023-04-26T03:50:30;11.10;;;5.35;;
70406;SDS011;57821;52.202;0.154;2023-04-26T03:52:56;12.25;;;5.00;;
70406;SDS011;57821;52.202;0.154;2023-04-26T03:55:23;12.48;;;5.75;;
70406;SDS011;57821;52.202;0.154;2023-04-26T03:57:50;13.65;;;5.10;;
70406;SDS011;57821;52.202;0.154;2023-04-26T04:00:16;15.07;;;5.55;;
70406;SDS011;57821;52.202;0.154;2023-04-26T04:02:43;15.27;;;6.10;;
70406;SDS011;57821;52.202;0.154;2023-04-26T04:05:17;13.55;;;5.30;;
70406;SDS011;57821;52.202;0.154;2023-04-26T04:07:44;11.73;;;5.00;;
70406;SDS011;57821;52.202;0.154;2023-04-26T04:10:12;15.60;;;5.38;;
70406;SDS011;57821;52.202;0.154;2023-04-26T04:12:40;15.65;;;5.15;;
70406;SDS011;57821;52.202;0.154;2023-04-26T04:15:07;14.30;;;5.50;;
70406;SDS011;57821;52.202;0.154;2023-04-26T04:17:36;10.80;;;5.25;;
70406;SDS011;57821;52.202;0.154;2023-04-26T04:20:04;13.55;;;4.85;;
70406;SDS011;57821;52.202;0.154;2023-04-26T04:22:31;11.63;;;4.97;;
70406;SDS011;57821;52.202;0.154;2023-04-26T04:24:58;10.68;;;5.32;;
70406;SDS011;57821;52.202;0.154;2023-04-26T04:27:25;13.48;;;5.13;;
70406;SDS011;57821;52.202;0.154;2023-04-26T04:29:52;18.17;;;6.65;;
70406;SDS011;57821;52.202;0.154;2023-04-26T04:32:18;12.70;;;5.40;;
70406;SDS011;57821;52.202;0.154;2023-04-26T04:34:45;12.60;;;4.93;;
70406;SDS011;57821;52.202;0.154;2023-04-26T04:37:15;11.50;;;4.85;;
70406;SDS011;57821;52.202;0.154;2023-04-26T04:39:42;14.48;;;5.35;;
70406;SDS011;57821;52.202;0.154;2023-04-26T04:42:09;9.95;;;4.70;;
70406;SDS011;57821;52.202;0.154;2023-04-26T04:44:35;13.00;;;5.05;;
70406;SDS011;57821;52.202;0.154;2023-04-26T04:47:02;12.52;;;4.55;;
70406;SDS011;57821;52.202;0.154;2023-04-26T04:49:29;13.38;;;5.15;;
70406;SDS011;57821;52.202;0.154;2023-04-26T04:51:56;13.63;;;5.15;;
70406;SDS011;57821;52.202;0.154;2023-04-26T04:54:23;11.38;;;4.60;;
70406;SDS011;57821;52.202;0.154;2023-04-26T04:56:50;14.60;;;5.40;;
70406;SDS011;57821;52.202;0.154;2023-04-26T04:59:18;14.52;;;5.35;;
70406;SDS011;57821;52.202;0.154;2023-04-26T05:01:46;20.35;;;6.05;;
70406;SDS011;57821;52.202;0.154;2023-04-26T05:04:14;11.15;;;5.03;;
70406;SDS011;57821;52.202;0.154;2023-04-26T05:06:42;18.48;;;5.65;;
70406;SDS011;57821;52.202;0.154;2023-04-26T05:09:09;12.80;;;4.70;;
70406;SDS011;57821;52.202;0.154;2023-04-26T05:11:36;15.00;;;5.35;;
70406;SDS011;57821;52.202;0.154;2023-04-26T05:14:03;17.02;;;5.60;;
70406;SDS011;57821;52.202;0.154;2023-04-26T05:16:30;16.63;;;5.47;;
70406;SDS011;57821;52.202;0.154;2023-04-26T05:18:58;18.98;;;5.32;;
70406;SDS011;57821;52.202;0.154;2023-04-26T05:21:25;14.93;;;5.50;;
70406;SDS011;57821;52.202;0.154;2023-04-26T05:23:51;19.95;;;6.78;;
70406;SDS011;57821;52.202;0.154;2023-04-26T05:26:19;11.60;;;5.22;;
70406;SDS011;57821;52.202;0.154;2023-04-26T05:29:13;20.73;;;6.75;;
70406;SDS011;57821;52.202;0.154;2023-04-26T05:32:12;13.63;;;6.63;;
70406;SDS011;57821;52.202;0.154;2023-04-26T05:34:39;13.05;;;5.55;;
70406;SDS011;57821;52.202;0.154;2023-04-26T05:37:10;17.50;;;5.65;;
70406;SDS011;57821;52.202;0.154;2023-04-26T05:39:36;14.50;;;5.75;;
70406;SDS011;57821;52.202;0.154;2023-04-26T05:42:03;19.92;;;7.40;;
70406;SDS011;57821;52.202;0.154;2023-04-26T05:44:30;13.68;;;5.68;;
70406;SDS011;57821;52.202;0.154;2023-04-26T05:46:57;19.67;;;6.78;;
70406;SDS011;57821;52.202;0.154;2023-04-26T05:49:25;20.10;;;6.35;;
70406;SDS011;57821;52.202;0.154;2023-04-26T05:51:51;18.15;;;5.53;;
70406;SDS011;57821;52.202;0.154;2023-04-26T05:54:18;18.27;;;6.18;;
70406;SDS011;57821;52.202;0.154;2023-04-26T05:56:44;10.55;;;6.05;;
70406;SDS011;57821;52.202;0.154;2023-04-26T05:59:11;15.55;;;6.43;;
70406;SDS011;57821;52.202;0.154;2023-04-26T06:01:37;15.85;;;5.65;;
70406;SDS011;57821;52.202;0.154;2023-04-26T06:04:04;15.63;;;5.93;;
70406;SDS011;57821;52.202;0.154;2023-04-26T06:06:41;17.75;;;6.20;;
70406;SDS011;57821;52.202;0.154;2023-04-26T06:09:07;15.57;;;6.07;;
70406;SDS011;57821;52.202;0.154;2023-04-26T06:11:35;14.57;;;5.97;;
70406;SDS011;57821;52.202;0.154;2023-04-26T06:14:01;19.08;;;6.97;;
70406;SDS011;57821;52.202;0.154;2023-04-26T06:16:28;12.07;;;6.43;;
70406;SDS011;57821;52.202;0.154;2023-04-26T06:18:54;15.65;;;7.07;;
70406;SDS011;57821;52.202;0.154;2023-04-26T06:21:21;16.27;;;6.60;;
70406;SDS011;57821;52.202;0.154;2023-04-26T06:23:47;13.70;;;6.28;;
70406;SDS011;57821;52.202;0.154;2023-04-26T06:26:16;16.58;;;6.47;;
70406;SDS011;57821;52.202;0.154;2023-04-26T06:28:45;15.02;;;6.97;;
70406;SDS011;57821;52.202;0.154;2023-04-26T06:31:12;13.63;;;6.25;;
70406;SDS011;57821;52.202;0.154;2023-04-26T06:33:39;17.70;;;6.85;;
70406;SDS011;57821;52.202;0.154;2023-04-26T06:36:09;22.98;;;8.05;;
70406;SDS011;57821;52.202;0.154;2023-04-26T06:38:36;16.73;;;7.70;;
70406;SDS011;57821;52.202;0.154;2023-04-26T06:41:03;20.35;;;6.97;;
70406;SDS011;57821;52.202;0.154;2023-04-26T06:43:31;16.60;;;6.45;;
70406;SDS011;57821;52.202;0.154;2023-04-26T06:46:01;16.98;;;6.55;;
70406;SDS011;57821;52.202;0.154;2023-04-26T06:48:28;17.75;;;6.80;;
70406;SDS011;57821;52.202;0.154;2023-04-26T06:50:54;14.15;;;6.78;;
70406;SDS011;57821;52.202;0.154;2023-04-26T06:53:20;21.42;;;7.65;;
70406;SDS011;57821;52.202;0.154;2023-04-26T06:55:48;19.40;;;6.85;;
70406;SDS011;57821;52.202;0.154;2023-04-26T06:58:15;16.50;;;6.15;;
70406;SDS011;57821;52.202;0.154;2023-04-26T07:00:41;13.90;;;5.60;;
70406;SDS011;57821;52.202;0.154;2023-04-26T07:03:08;14.70;;;6.15;;
70406;SDS011;57821;52.202;0.154;2023-04-26T07:05:34;16.25;;;5.90;;
70406;SDS011;57821;52.202;0.154;2023-04-26T07:08:01;16.25;;;5.78;;
70406;SDS011;57821;52.202;0.154;2023-04-26T07:10:27;11.18;;;5.55;;
70406;SDS011;57821;52.202;0.154;2023-04-26T07:12:54;13.25;;;5.20;;
70406;SDS011;57821;52.202;0.154;2023-04-26T07:15:20;15.30;;;5.43;;
70406;SDS011;57821;52.202;0.154;2023-04-26T07:17:47;13.82;;;6.22;;
70406;SDS011;57821;52.202;0.154;2023-04-26T07:20:13;12.57;;;6.13;;
70406;SDS011;57821;52.202;0.154;2023-04-26T07:22:40;15.43;;;6.45;;
70406;SDS011;57821;52.202;0.154;2023-04-26T07:25:07;15.23;;;6.25;;
70406;SDS011;57821;52.202;0.154;2023-04-26T07:27:33;11.73;;;6.07;;
70406;SDS011;57821;52.202;0.154;2023-04-26T07:29:59;13.95;;;6.05;;
70406;SDS011;57821;52.202;0.154;2023-04-26T07:32:26;12.23;;;6.07;;
70406;SDS011;57821;52.202;0.154;2023-04-26T07:34:53;12.15;;;5.93;;
70406;SDS011;57821;52.202;0.154;2023-04-26T07:37:19;14.60;;;5.55;;
70406;SDS011;57821;52.202;0.154;2023-04-26T07:39:46;14.30;;;5.38;;
70406;SDS011;57821;52.202;0.154;2023-04-26T07:42:12;12.50;;;5.32;;
70406;SDS011;57821;52.202;0.154;2023-04-26T07:44:39;11.55;;;5.00;;
70406;SDS011;57821;52.202;0.154;2023-04-26T07:47:11;12.27;;;4.57;;
70406;SDS011;57821;52.202;0.154;2023-04-26T07:49:38;14.38;;;4.25;;
70406;SDS011;57821;52.202;0.154;2023-04-26T07:52:04;11.85;;;4.38;;
70406;SDS011;57821;52.202;0.154;2023-04-26T07:54:31;13.70;;;4.78;;
70406;SDS011;57821;52.202;0.154;2023-04-26T07:56:57;11.13;;;3.97;;
70406;SDS011;57821;52.202;0.154;2023-04-26T07:59:24;13.60;;;4.10;;
70406;SDS011;57821;52.202;0.154;2023-04-26T08:01:50;12.68;;;4.20;;
70406;SDS011;57821;52.202;0.154;2023-04-26T08:04:28;12.05;;;3.83;;
70406;SDS011;57821;52.202;0.154;2023-04-26T08:06:57;10.10;;;4.97;;
70406;SDS011;57821;52.202;0.154;2023-04-26T08:09:23;10.10;;;4.00;;
70406;SDS011;57821;52.202;0.154;2023-04-26T08:11:50;11.40;;;4.30;;
70406;SDS011;57821;52.202;0.154;2023-04-26T08:14:16;12.55;;;4.22;;
70406;SDS011;57821;52.202;0.154;2023-04-26T08:16:43;11.98;;;4.30;;
70406;SDS011;57821;52.202;0.154;2023-04-26T08:19:09;10.82;;;3.58;;
70406;SDS011;57821;52.202;0.154;2023-04-26T08:21:36;12.27;;;3.90;;
70406;SDS011;57821;52.202;0.154;2023-04-26T08:24:02;16.02;;;4.50;;
70406;SDS011;57821;52.202;0.154;2023-04-26T08:26:29;12.05;;;4.80;;
70406;SDS011;57821;52.202;0.154;2023-04-26T08:28:55;12.07;;;3.95;;
70406;SDS011;57821;52.202;0.154;2023-04-26T08:31:22;8.27;;;4.05;;
70406;SDS011;57821;52.202;0.154;2023-04-26T08:33:49;12.10;;;3.20;;
70406;SDS011;57821;52.202;0.154;2023-04-26T08:36:16;13.75;;;4.80;;
70406;SDS011;57821;52.202;0.154;2023-04-26T08:38:42;9.55;;;3.75;;
70406;SDS011;57821;52.202;0.154;2023-04-26T08:41:10;15.75;;;4.00;;
70406;SDS011;57821;52.202;0.154;2023-04-26T08:43:38;10.02;;;4.15;;
70406;SDS011;57821;52.202;0.154;2023-04-26T08:46:06;12.80;;;4.35;;
70406;SDS011;57821;52.202;0.154;2023-04-26T08:48:36;9.95;;;3.90;;
70406;SDS011;57821;52.202;0.154;2023-04-26T08:51:02;8.98;;;3.08;;
70406;SDS011;57821;52.202;0.154;2023-04-26T08:53:30;9.07;;;2.80;;
70406;SDS011;57821;52.202;0.154;2023-04-26T08:55:59;9.35;;;2.85;;
70406;SDS011;57821;52.202;0.154;2023-04-26T08:58:27;8.38;;;2.92;;
70406;SDS011;57821;52.202;0.154;2023-04-26T09:00:53;7.90;;;3.25;;
70406;SDS011;57821;52.202;0.154;2023-04-26T09:03:22;9.18;;;2.92;;
70406;SDS011;57821;52.202;0.154;2023-04-26T09:05:49;11.85;;;3.08;;
70406;SDS011;57821;52.202;0.154;2023-04-26T09:08:16;8.90;;;2.95;;
70406;SDS011;57821;52.202;0.154;2023-04-26T09:10:42;15.23;;;3.35;;
70406;SDS011;57821;52.202;0.154;2023-04-26T09:13:09;10.60;;;3.55;;
70406;SDS011;57821;52.202;0.154;2023-04-26T09:15:36;11.95;;;2.90;;
70406;SDS011;57821;52.202;0.154;2023-04-26T09:18:15;8.60;;;3.08;;
70406;SDS011;57821;52.202;0.154;2023-04-26T09:20:43;8.38;;;2.53;;
70406;SDS011;57821;52.202;0.154;2023-04-26T09:23:10;11.23;;;3.30;;
70406;SDS011;57821;52.202;0.154;2023-04-26T09:25:37;8.23;;;3.05;;
70406;SDS011;57821;52.202;0.154;2023-04-26T09:28:04;9.70;;;3.28;;
70406;SDS011;57821;52.202;0.154;2023-04-26T09:30:44;10.75;;;2.92;;
70406;SDS011;57821;52.202;0.154;2023-04-26T09:33:11;14.82;;;3.00;;
70406;SDS011;57821;52.202;0.154;2023-04-26T09:35:38;9.05;;;3.60;;
70406;SDS011;57821;52.202;0.154;2023-04-26T09:40:39;8.60;;;2.92;;
70406;SDS011;57821;52.202;0.154;2023-04-26T09:43:16;10.63;;;2.60;;
70406;SDS011;57821;52.202;0.154;2023-04-26T09:45:48;8.25;;;2.92;;
70406;SDS011;57821;52.202;0.154;2023-04-26T09:50:54;9.38;;;3.22;;
70406;SDS011;57821;52.202;0.154;2023-04-26T09:53:32;7.25;;;2.85;;
70406;SDS011;57821;52.202;0.154;2023-04-26T09:58:37;10.38;;;3.17;;
70406;SDS011;57821;52.202;0.154;2023-04-26T10:01:07;7.07;;;2.75;;
70406;SDS011;57821;52.202;0.154;2023-04-26T10:03:34;12.88;;;3.40;;
70406;SDS011;57821;52.202;0.154;2023-04-26T10:06:02;12.15;;;4.28;;
70406;SDS011;57821;52.202;0.154;2023-04-26T10:08:32;12.05;;;3.65;;
70406;SDS011;57821;52.202;0.154;2023-04-26T10:10:59;9.48;;;3.30;;
70406;SDS011;57821;52.202;0.154;2023-04-26T10:13:26;13.77;;;3.75;;
70406;SDS011;57821;52.202;0.154;2023-04-26T10:15:53;7.95;;;3.05;;
70406;SDS011;57821;52.202;0.154;2023-04-26T10:18:20;8.65;;;2.67;;
70406;SDS011;57821;52.202;0.154;2023-04-26T10:20:47;9.13;;;3.35;;
70406;SDS011;57821;52.202;0.154;2023-04-26T10:23:18;11.30;;;3.00;;
70406;SDS011;57821;52.202;0.154;2023-04-26T10:25:47;8.52;;;2.85;;
70406;SDS011;57821;52.202;0.154;2023-04-26T10:28:14;8.07;;;2.63;;
70406;SDS011;57821;52.202;0.154;2023-04-26T10:30:59;8.90;;;3.10;;
70406;SDS011;57821;52.202;0.154;2023-04-26T10:33:25;8.43;;;3.05;;
70406;SDS011;57821;52.202;0.154;2023-04-26T10:38:25;7.25;;;2.90;;
70406;SDS011;57821;52.202;0.154;2023-04-26T10:40:52;7.38;;;2.75;;
70406;SDS011;57821;52.202;0.154;2023-04-26T10:43:26;9.57;;;3.10;;
70406;SDS011;57821;52.202;0.154;2023-04-26T10:45:53;8.65;;;3.40;;
70406;SDS011;57821;52.202;0.154;2023-04-26T10:48:20;9.88;;;3.05;;
70406;SDS011;57821;52.202;0.154;2023-04-26T10:56:11;8.02;;;2.75;;
70406;SDS011;57821;52.202;0.154;2023-04-26T10:59:14;6.72;;;2.65;;
70406;SDS011;57821;52.202;0.154;2023-04-26T11:02:08;9.45;;;2.38;;
70406;SDS011;57821;52.202;0.154;2023-04-26T11:04:50;7.30;;;3.63;;
70406;SDS011;57821;52.202;0.154;2023-04-26T11:07:34;7.20;;;2.60;;
70406;SDS011;57821;52.202;0.154;2023-04-26T11:10:07;7.22;;;2.50;;
70406;SDS011;57821;52.202;0.154;2023-04-26T11:12:34;8.48;;;2.85;;
70406;SDS011;57821;52.202;0.154;2023-04-26T11:15:01;8.27;;;2.78;;
70406;SDS011;57821;52.202;0.154;2023-04-26T11:17:27;9.40;;;2.83;;
70406;SDS011;57821;52.202;0.154;2023-04-26T11:19:54;9.98;;;2.90;;
70406;SDS011;57821;52.202;0.154;2023-04-26T11:22:20;9.60;;;2.78;;
70406;SDS011;57821;52.202;0.154;2023-04-26T11:24:47;10.32;;;3.13;;
70406;SDS011;57821;52.202;0.154;2023-04-26T11:27:15;8.20;;;3.03;;
70406;SDS011;57821;52.202;0.154;2023-04-26T11:29:41;7.25;;;2.65;;
70406;SDS011;57821;52.202;0.154;2023-04-26T11:32:08;8.20;;;2.67;;
70406;SDS011;57821;52.202;0.154;2023-04-26T11:34:34;9.68;;;3.13;;
70406;SDS011;57821;52.202;0.154;2023-04-26T11:37:02;8.95;;;2.72;;
70406;SDS011;57821;52.202;0.154;2023-04-26T11:39:30;8.95;;;2.65;;
70406;SDS011;57821;52.202;0.154;2023-04-26T11:42:10;9.23;;;3.05;;
70406;SDS011;57821;52.202;0.154;2023-04-26T11:44:40;12.40;;;3.30;;
70406;SDS011;57821;52.202;0.154;2023-04-26T11:47:07;7.10;;;3.20;;
70406;SDS011;57821;52.202;0.154;2023-04-26T11:49:35;8.18;;;3.17;;
70406;SDS011;57821;52.202;0.154;2023-04-26T11:52:03;6.95;;;2.60;;
70406;SDS011;57821;52.202;0.154;2023-04-26T11:54:31;8.43;;;2.65;;
70406;SDS011;57821;52.202;0.154;2023-04-26T11:56:59;9.38;;;2.92;;
70406;SDS011;57821;52.202;0.154;2023-04-26T11:59:29;6.30;;;2.65;;
70406;SDS011;57821;52.202;0.154;2023-04-26T12:01:56;7.53;;;2.83;;
70406;SDS011;57821;52.202;0.154;2023-04-26T12:04:26;8.80;;;3.35;;
70406;SDS011;57821;52.202;0.154;2023-04-26T12:06:56;8.68;;;3.25;;
70406;SDS011;57821;52.202;0.154;2023-04-26T12:09:23;8.65;;;3.08;;
70406;SDS011;57821;52.202;0.154;2023-04-26T12:11:57;7.90;;;3.08;;
70406;SDS011;57821;52.202;0.154;2023-04-26T12:14:38;11.40;;;3.03;;
70406;SDS011;57821;52.202;0.154;2023-04-26T12:17:06;12.32;;;3.13;;
70406;SDS011;57821;52.202;0.154;2023-04-26T12:22:03;12.52;;;3.25;;
70406;SDS011;57821;52.202;0.154;2023-04-26T12:24:31;8.77;;;3.20;;
70406;SDS011;57821;52.202;0.154;2023-04-26T12:26:59;13.65;;;3.20;;
70406;SDS011;57821;52.202;0.154;2023-04-26T12:29:27;7.72;;;2.92;;
70406;SDS011;57821;52.202;0.154;2023-04-26T12:31:54;8.65;;;2.97;;
70406;SDS011;57821;52.202;0.154;2023-04-26T12:34:21;10.13;;;3.13;;
70406;SDS011;57821;52.202;0.154;2023-04-26T12:36:48;8.35;;;2.90;;
70406;SDS011;57821;52.202;0.154;2023-04-26T12:39:15;9.70;;;3.78;;
70406;SDS011;57821;52.202;0.154;2023-04-26T12:41:42;10.27;;;3.10;;
70406;SDS011;57821;52.202;0.154;2023-04-26T12:44:10;9.38;;;3.00;;
70406;SDS011;57821;52.202;0.154;2023-04-26T12:46:37;9.65;;;3.42;;
70406;SDS011;57821;52.202;0.154;2023-04-26T12:49:04;8.55;;;3.83;;
70406;SDS011;57821;52.202;0.154;2023-04-26T12:51:30;11.70;;;3.70;;
70406;SDS011;57821;52.202;0.154;2023-04-26T12:53:57;9.85;;;3.83;;
70406;SDS011;57821;52.202;0.154;2023-04-26T12:56:23;8.13;;;3.70;;
70406;SDS011;57821;52.202;0.154;2023-04-26T12:58:50;8.60;;;3.35;;
70406;SDS011;57821;52.202;0.154;2023-04-26T13:01:16;7.85;;;3.53;;
70406;SDS011;57821;52.202;0.154;2023-04-26T13:03:43;9.75;;;3.15;;
70406;SDS011;57821;52.202;0.154;2023-04-26T13:06:10;11.57;;;3.10;;
70406;SDS011;57821;52.202;0.154;2023-04-26T13:08:37;10.15;;;2.95;;
70406;SDS011;57821;52.202;0.154;2023-04-26T13:11:03;10.75;;;3.33;;
70406;SDS011;57821;52.202;0.154;2023-04-26T13:13:30;6.68;;;2.90;;
70406;SDS011;57821;52.202;0.154;2023-04-26T13:16:09;9.63;;;3.60;;
70406;SDS011;57821;52.202;0.154;2023-04-26T13:18:35;8.52;;;3.35;;
70406;SDS011;57821;52.202;0.154;2023-04-26T13:21:02;10.90;;;3.17;;
70406;SDS011;57821;52.202;0.154;2023-04-26T13:23:29;8.90;;;3.15;;
70406;SDS011;57821;52.202;0.154;2023-04-26T13:25:55;8.43;;;3.13;;
70406;SDS011;57821;52.202;0.154;2023-04-26T13:28:22;13.20;;;3.58;;
70406;SDS011;57821;52.202;0.154;2023-04-26T13:30:48;9.05;;;3.40;;
70406;SDS011;57821;52.202;0.154;2023-04-26T13:33:15;8.38;;;3.33;;
70406;SDS011;57821;52.202;0.154;2023-04-26T13:35:41;9.50;;;3.42;;
70406;SDS011;57821;52.202;0.154;2023-04-26T13:38:08;10.50;;;3.20;;
70406;SDS011;57821;52.202;0.154;2023-04-26T13:40:35;10.07;;;3.47;;
70406;SDS011;57821;52.202;0.154;2023-04-26T13:43:02;9.57;;;3.75;;
70406;SDS011;57821;52.202;0.154;2023-04-26T13:45:29;10.55;;;3.42;;
70406;SDS011;57821;52.202;0.154;2023-04-26T13:47:55;8.07;;;3.22;;
70406;SDS011;57821;52.202;0.154;2023-04-26T13:50:22;9.20;;;4.38;;
70406;SDS011;57821;52.202;0.154;2023-04-26T13:52:48;8.25;;;3.50;;
70406;SDS011;57821;52.202;0.154;2023-04-26T13:55:15;10.10;;;4.03;;
70406;SDS011;57821;52.202;0.154;2023-04-26T13:57:41;12.73;;;3.30;;
70406;SDS011;57821;52.202;0.154;2023-04-26T14:00:08;9.18;;;3.30;;
70406;SDS011;57821;52.202;0.154;2023-04-26T14:02:38;10.60;;;4.28;;
70406;SDS011;57821;52.202;0.154;2023-04-26T14:05:05;10.45;;;3.50;;
70406;SDS011;57821;52.202;0.154;2023-04-26T14:07:32;12.85;;;3.65;;
70406;SDS011;57821;52.202;0.154;2023-04-26T14:09:58;11.15;;;3.70;;
70406;SDS011;57821;52.202;0.154;2023-04-26T14:12:25;13.13;;;4.03;;
70406;SDS011;57821;52.202;0.154;2023-04-26T14:14:51;11.32;;;3.55;;
70406;SDS011;57821;52.202;0.154;2023-04-26T14:17:18;11.27;;;3.67;;
70406;SDS011;57821;52.202;0.154;2023-04-26T14:19:44;8.90;;;3.75;;
70406;SDS011;57821;52.202;0.154;2023-04-26T14:22:11;8.77;;;3.72;;
70406;SDS011;57821;52.202;0.154;2023-04-26T14:24:37;11.75;;;4.13;;
70406;SDS011;57821;52.202;0.154;2023-04-26T14:27:04;10.20;;;3.85;;
70406;SDS011;57821;52.202;0.154;2023-04-26T14:29:30;9.32;;;4.22;;
70406;SDS011;57821;52.202;0.154;2023-04-26T14:31:57;16.65;;;4.20;;
70406;SDS011;57821;52.202;0.154;2023-04-26T14:34:23;11.10;;;4.05;;
70406;SDS011;57821;52.202;0.154;2023-04-26T14:36:50;10.00;;;3.78;;
70406;SDS011;57821;52.202;0.154;2023-04-26T14:39:16;9.07;;;3.58;;
70406;SDS011;57821;52.202;0.154;2023-04-26T14:41:43;8.35;;;3.83;;
70406;SDS011;57821;52.202;0.154;2023-04-26T14:44:09;13.57;;;4.22;;
70406;SDS011;57821;52.202;0.154;2023-04-26T14:46:36;9.77;;;3.90;;
70406;SDS011;57821;52.202;0.154;2023-04-26T14:49:03;10.25;;;3.90;;
70406;SDS011;57821;52.202;0.154;2023-04-26T14:51:29;12.45;;;3.90;;
70406;SDS011;57821;52.202;0.154;2023-04-26T14:53:56;9.48;;;3.90;;
70406;SDS011;57821;52.202;0.154;2023-04-26T14:56:23;10.10;;;3.70;;
70406;SDS011;57821;52.202;0.154;2023-04-26T14:58:49;9.25;;;3.72;;